sensor_id;sensor_type;location;lat;lon;timestamp;P1;durP1;ratioP1;P2;durP2;ratioP2
69008;SDS011;56065;52.472;13.380;2022-09-03T00:00:14;3.75;;;0.90;;
69008;SDS011;56065;52.472;13.380;2022-09-03T00:02:58;5.78;;;1.40;;
69008;SDS011;56065;52.472;13.380;2022-09-03T00:05:46;4.25;;;1.17;;
69008;SDS011;56065;52.472;13.380;2022-09-03T00:09:06;4.35;;;1.10;;
69008;SDS011;56065;52.472;13.380;2022-09-03T00:14:35;4.43;;;1.02;;
69008;SDS011;56065;52.472;13.380;2022-09-03T00:17:06;4.10;;;0.88;;
69008;SDS011;56065;52.472;13.380;2022-09-03T00:19:37;6.75;;;1.10;;
69008;SDS011;56065;52.472;13.380;2022-09-03T00:22:09;4.25;;;1.10;;
69008;SDS011;56065;52.472;13.380;2022-09-03T00:24:39;4.57;;;1.17;;
69008;SDS011;56065;52.472;13.380;2022-09-03T00:27:12;5.82;;;0.95;;
69008;SDS011;56065;52.472;13.380;2022-09-03T00:29:45;3.53;;;0.90;;
69008;SDS011;56065;52.472;13.380;2022-09-03T00:33:22;3.97;;;1.10;;
69008;SDS011;56065;52.472;13.380;2022-09-03T00:35:21;4.28;;;0.90;;
69008;SDS011;56065;52.472;13.380;2022-09-03T00:37:51;3.60;;;0.87;;
69008;SDS011;56065;52.472;13.380;2022-09-03T00:41:01;4.95;;;0.70;;
69008;SDS011;56065;52.472;13.380;2022-09-03T01:00:12;5.40;;;1.00;;
69008;SDS011;56065;52.472;13.380;2022-09-03T01:02:46;3.92;;;1.00;;
69008;SDS011;56065;52.472;13.380;2022-09-03T01:30:30;2.67;;;0.70;;
69008;SDS011;56065;52.472;13.380;2022-09-03T01:35:33;3.37;;;1.00;;
69008;SDS011;56065;52.472;13.380;2022-09-03T01:38:31;5.75;;;0.90;;
69008;SDS011;56065;52.472;13.380;2022-09-03T01:41:06;2.95;;;0.60;;
69008;SDS011;56065;52.472;13.380;2022-09-03T01:46:27;3.92;;;0.82;;
69008;SDS011;56065;52.472;13.380;2022-09-03T01:51:47;4.75;;;0.98;;
69008;SDS011;56065;52.472;13.380;2022-09-03T01:54:34;5.65;;;1.00;;
69008;SDS011;56065;52.472;13.380;2022-09-03T01:57:16;2.42;;;0.77;;
69008;SDS011;56065;52.472;13.380;2022-09-03T01:59:56;4.80;;;1.10;;
69008;SDS011;56065;52.472;13.380;2022-09-03T02:02:27;3.33;;;0.80;;
69008;SDS011;56065;52.472;13.380;2022-09-03T02:04:57;3.55;;;0.70;;
69008;SDS011;56065;52.472;13.380;2022-09-03T02:07:28;3.85;;;1.00;;
69008;SDS011;56065;52.472;13.380;2022-09-03T02:09:57;5.38;;;1.00;;
69008;SDS011;56065;52.472;13.380;2022-09-03T02:12:24;4.33;;;0.70;;
69008;SDS011;56065;52.472;13.380;2022-09-03T02:14:50;7.65;;;1.00;;
69008;SDS011;56065;52.472;13.380;2022-09-03T02:17:15;4.83;;;0.97;;
69008;SDS011;56065;52.472;13.380;2022-09-03T02:19:40;5.47;;;1.00;;
69008;SDS011;56065;52.472;13.380;2022-09-03T02:22:06;3.78;;;0.90;;
69008;SDS011;56065;52.472;13.380;2022-09-03T02:24:31;6.47;;;0.90;;
69008;SDS011;56065;52.472;13.380;2022-09-03T02:26:57;4.40;;;0.87;;
69008;SDS011;56065;52.472;13.380;2022-09-03T02:29:22;3.53;;;0.80;;
69008;SDS011;56065;52.472;13.380;2022-09-03T02:31:49;7.45;;;0.82;;
69008;SDS011;56065;52.472;13.380;2022-09-03T02:34:15;3.75;;;0.80;;
69008;SDS011;56065;52.472;13.380;2022-09-03T02:36:42;3.20;;;0.80;;
69008;SDS011;56065;52.472;13.380;2022-09-03T02:39:10;4.57;;;0.98;;
69008;SDS011;56065;52.472;13.380;2022-09-03T02:41:36;5.07;;;1.10;;
69008;SDS011;56065;52.472;13.380;2022-09-03T02:44:05;3.30;;;1.03;;
69008;SDS011;56065;52.472;13.380;2022-09-03T02:46:38;3.85;;;0.95;;
69008;SDS011;56065;52.472;13.380;2022-09-03T02:49:05;4.93;;;1.05;;
69008;SDS011;56065;52.472;13.380;2022-09-03T02:51:31;5.22;;;1.33;;
69008;SDS011;56065;52.472;13.380;2022-09-03T02:54:01;6.27;;;1.07;;
69008;SDS011;56065;52.472;13.380;2022-09-03T02:56:26;3.47;;;0.82;;
69008;SDS011;56065;52.472;13.380;2022-09-03T02:58:52;3.50;;;1.07;;
69008;SDS011;56065;52.472;13.380;2022-09-03T03:01:20;7.47;;;1.23;;
69008;SDS011;56065;52.472;13.380;2022-09-03T03:03:45;3.93;;;0.97;;
69008;SDS011;56065;52.472;13.380;2022-09-03T03:06:11;4.57;;;1.08;;
69008;SDS011;56065;52.472;13.380;2022-09-03T03:08:38;4.78;;;1.15;;
69008;SDS011;56065;52.472;13.380;2022-09-03T03:11:04;6.27;;;1.20;;
69008;SDS011;56065;52.472;13.380;2022-09-03T03:13:31;4.10;;;1.10;;
69008;SDS011;56065;52.472;13.380;2022-09-03T03:15:57;5.57;;;0.98;;
69008;SDS011;56065;52.472;13.380;2022-09-03T03:18:24;4.90;;;1.00;;
69008;SDS011;56065;52.472;13.380;2022-09-03T03:20:49;4.10;;;1.00;;
69008;SDS011;56065;52.472;13.380;2022-09-03T03:23:15;3.97;;;0.90;;
69008;SDS011;56065;52.472;13.380;2022-09-03T03:25:41;5.23;;;0.90;;
69008;SDS011;56065;52.472;13.380;2022-09-03T03:28:06;3.97;;;1.00;;
69008;SDS011;56065;52.472;13.380;2022-09-03T03:30:32;3.80;;;0.98;;
69008;SDS011;56065;52.472;13.380;2022-09-03T03:32:58;3.28;;;0.77;;
69008;SDS011;56065;52.472;13.380;2022-09-03T03:35:24;5.22;;;1.10;;
69008;SDS011;56065;52.472;13.380;2022-09-03T03:37:50;6.90;;;1.60;;
69008;SDS011;56065;52.472;13.380;2022-09-03T03:40:15;5.53;;;1.00;;
69008;SDS011;56065;52.472;13.380;2022-09-03T03:42:41;4.85;;;1.20;;
69008;SDS011;56065;52.472;13.380;2022-09-03T03:45:07;4.13;;;1.10;;
69008;SDS011;56065;52.472;13.380;2022-09-03T03:47:34;4.97;;;1.13;;
69008;SDS011;56065;52.472;13.380;2022-09-03T03:49:59;3.92;;;0.95;;
69008;SDS011;56065;52.472;13.380;2022-09-03T03:52:25;4.40;;;0.90;;
69008;SDS011;56065;52.472;13.380;2022-09-03T03:54:51;4.33;;;1.37;;
69008;SDS011;56065;52.472;13.380;2022-09-03T03:57:18;5.33;;;1.40;;
69008;SDS011;56065;52.472;13.380;2022-09-03T03:59:44;6.28;;;1.30;;
69008;SDS011;56065;52.472;13.380;2022-09-03T04:02:10;4.20;;;1.20;;
69008;SDS011;56065;52.472;13.380;2022-09-03T04:04:36;6.05;;;1.27;;
69008;SDS011;56065;52.472;13.380;2022-09-03T04:07:02;5.27;;;0.87;;
69008;SDS011;56065;52.472;13.380;2022-09-03T04:09:27;3.20;;;0.90;;
69008;SDS011;56065;52.472;13.380;2022-09-03T04:11:53;5.70;;;0.90;;
69008;SDS011;56065;52.472;13.380;2022-09-03T04:14:18;5.47;;;1.23;;
69008;SDS011;56065;52.472;13.380;2022-09-03T04:16:44;5.70;;;1.33;;
69008;SDS011;56065;52.472;13.380;2022-09-03T04:19:11;6.10;;;1.10;;
69008;SDS011;56065;52.472;13.380;2022-09-03T04:21:37;6.30;;;1.42;;
69008;SDS011;56065;52.472;13.380;2022-09-03T04:24:02;4.50;;;1.30;;
69008;SDS011;56065;52.472;13.380;2022-09-03T04:26:29;4.10;;;1.00;;
69008;SDS011;56065;52.472;13.380;2022-09-03T04:28:56;4.95;;;1.67;;
69008;SDS011;56065;52.472;13.380;2022-09-03T04:31:22;4.50;;;1.10;;
69008;SDS011;56065;52.472;13.380;2022-09-03T04:33:47;4.82;;;1.38;;
69008;SDS011;56065;52.472;13.380;2022-09-03T04:36:20;6.50;;;1.30;;
69008;SDS011;56065;52.472;13.380;2022-09-03T04:38:48;5.97;;;1.50;;
69008;SDS011;56065;52.472;13.380;2022-09-03T04:41:18;5.43;;;1.40;;
69008;SDS011;56065;52.472;13.380;2022-09-03T04:43:54;4.88;;;1.30;;
69008;SDS011;56065;52.472;13.380;2022-09-03T04:46:21;7.10;;;1.70;;
69008;SDS011;56065;52.472;13.380;2022-09-03T04:48:50;7.07;;;1.50;;
69008;SDS011;56065;52.472;13.380;2022-09-03T04:51:20;4.43;;;1.30;;
69008;SDS011;56065;52.472;13.380;2022-09-03T04:53:51;5.32;;;1.42;;
69008;SDS011;56065;52.472;13.380;2022-09-03T04:56:21;3.72;;;1.33;;
69008;SDS011;56065;52.472;13.380;2022-09-03T04:58:55;5.80;;;1.67;;
69008;SDS011;56065;52.472;13.380;2022-09-03T05:01:23;5.90;;;1.50;;
69008;SDS011;56065;52.472;13.380;2022-09-03T05:03:49;7.30;;;1.70;;
69008;SDS011;56065;52.472;13.380;2022-09-03T05:06:18;6.15;;;1.80;;
69008;SDS011;56065;52.472;13.380;2022-09-03T05:08:50;5.55;;;1.60;;
69008;SDS011;56065;52.472;13.380;2022-09-03T05:11:17;4.28;;;1.50;;
69008;SDS011;56065;52.472;13.380;2022-09-03T05:13:43;6.17;;;1.37;;
69008;SDS011;56065;52.472;13.380;2022-09-03T05:16:12;3.95;;;1.55;;
69008;SDS011;56065;52.472;13.380;2022-09-03T05:18:37;6.10;;;1.73;;
69008;SDS011;56065;52.472;13.380;2022-09-03T05:21:05;6.85;;;1.52;;
69008;SDS011;56065;52.472;13.380;2022-09-03T05:23:34;4.20;;;1.67;;
69008;SDS011;56065;52.472;13.380;2022-09-03T05:26:02;4.72;;;1.60;;
69008;SDS011;56065;52.472;13.380;2022-09-03T05:28:33;5.35;;;1.63;;
69008;SDS011;56065;52.472;13.380;2022-09-03T05:31:00;5.57;;;1.67;;
69008;SDS011;56065;52.472;13.380;2022-09-03T05:33:34;4.97;;;1.60;;
69008;SDS011;56065;52.472;13.380;2022-09-03T05:36:04;5.93;;;1.67;;
69008;SDS011;56065;52.472;13.380;2022-09-03T05:38:31;4.22;;;1.40;;
69008;SDS011;56065;52.472;13.380;2022-09-03T05:40:57;7.55;;;1.50;;
69008;SDS011;56065;52.472;13.380;2022-09-03T05:43:27;5.77;;;1.70;;
69008;SDS011;56065;52.472;13.380;2022-09-03T05:45:57;5.97;;;1.85;;
69008;SDS011;56065;52.472;13.380;2022-09-03T05:48:33;6.20;;;1.63;;
69008;SDS011;56065;52.472;13.380;2022-09-03T05:51:04;9.90;;;2.08;;
69008;SDS011;56065;52.472;13.380;2022-09-03T05:53:32;7.07;;;1.63;;
69008;SDS011;56065;52.472;13.380;2022-09-03T05:56:00;5.03;;;1.53;;
69008;SDS011;56065;52.472;13.380;2022-09-03T05:58:31;5.45;;;1.40;;
69008;SDS011;56065;52.472;13.380;2022-09-03T06:00:57;5.13;;;1.75;;
69008;SDS011;56065;52.472;13.380;2022-09-03T06:03:23;5.07;;;1.60;;
69008;SDS011;56065;52.472;13.380;2022-09-03T06:05:52;6.22;;;1.95;;
69008;SDS011;56065;52.472;13.380;2022-09-03T06:08:19;5.57;;;1.52;;
69008;SDS011;56065;52.472;13.380;2022-09-03T06:10:45;7.18;;;1.85;;
69008;SDS011;56065;52.472;13.380;2022-09-03T06:13:11;4.53;;;1.60;;
69008;SDS011;56065;52.472;13.380;2022-09-03T06:15:37;7.07;;;1.97;;
69008;SDS011;56065;52.472;13.380;2022-09-03T06:18:02;5.63;;;1.58;;
69008;SDS011;56065;52.472;13.380;2022-09-03T06:20:28;7.55;;;2.60;;
69008;SDS011;56065;52.472;13.380;2022-09-03T06:22:54;6.10;;;1.60;;
69008;SDS011;56065;52.472;13.380;2022-09-03T06:25:20;5.87;;;1.93;;
69008;SDS011;56065;52.472;13.380;2022-09-03T06:27:45;5.33;;;1.80;;
69008;SDS011;56065;52.472;13.380;2022-09-03T06:30:11;6.25;;;1.98;;
69008;SDS011;56065;52.472;13.380;2022-09-03T06:32:47;5.68;;;1.67;;
69008;SDS011;56065;52.472;13.380;2022-09-03T06:35:16;5.67;;;1.90;;
69008;SDS011;56065;52.472;13.380;2022-09-03T06:37:42;5.40;;;1.70;;
69008;SDS011;56065;52.472;13.380;2022-09-03T06:40:08;9.43;;;1.67;;
69008;SDS011;56065;52.472;13.380;2022-09-03T06:42:40;6.20;;;1.60;;
69008;SDS011;56065;52.472;13.380;2022-09-03T06:45:09;9.13;;;2.20;;
69008;SDS011;56065;52.472;13.380;2022-09-03T06:47:35;5.32;;;1.58;;
69008;SDS011;56065;52.472;13.380;2022-09-03T06:50:01;5.23;;;1.37;;
69008;SDS011;56065;52.472;13.380;2022-09-03T06:52:29;5.45;;;1.63;;
69008;SDS011;56065;52.472;13.380;2022-09-03T06:54:54;5.85;;;1.73;;
69008;SDS011;56065;52.472;13.380;2022-09-03T06:57:20;4.60;;;1.30;;
69008;SDS011;56065;52.472;13.380;2022-09-03T06:59:45;5.93;;;1.67;;
69008;SDS011;56065;52.472;13.380;2022-09-03T07:02:11;5.77;;;1.67;;
69008;SDS011;56065;52.472;13.380;2022-09-03T07:04:36;4.97;;;1.40;;
69008;SDS011;56065;52.472;13.380;2022-09-03T07:07:01;4.73;;;1.50;;
69008;SDS011;56065;52.472;13.380;2022-09-03T07:09:27;5.37;;;1.57;;
69008;SDS011;56065;52.472;13.380;2022-09-03T07:11:53;5.13;;;1.50;;
69008;SDS011;56065;52.472;13.380;2022-09-03T07:14:19;5.10;;;1.33;;
69008;SDS011;56065;52.472;13.380;2022-09-03T07:16:46;5.65;;;1.60;;
69008;SDS011;56065;52.472;13.380;2022-09-03T07:19:12;5.28;;;1.60;;
69008;SDS011;56065;52.472;13.380;2022-09-03T07:21:38;6.53;;;1.93;;
69008;SDS011;56065;52.472;13.380;2022-09-03T07:24:07;5.05;;;1.27;;
69008;SDS011;56065;52.472;13.380;2022-09-03T07:26:33;4.65;;;1.35;;
69008;SDS011;56065;52.472;13.380;2022-09-03T07:29:04;7.75;;;1.40;;
69008;SDS011;56065;52.472;13.380;2022-09-03T07:31:36;7.57;;;1.40;;
69008;SDS011;56065;52.472;13.380;2022-09-03T07:34:06;4.70;;;1.13;;
69008;SDS011;56065;52.472;13.380;2022-09-03T07:36:37;5.57;;;1.58;;
69008;SDS011;56065;52.472;13.380;2022-09-03T07:39:07;4.18;;;1.33;;
69008;SDS011;56065;52.472;13.380;2022-09-03T07:41:33;4.55;;;1.50;;
69008;SDS011;56065;52.472;13.380;2022-09-03T07:43:59;5.73;;;1.00;;
69008;SDS011;56065;52.472;13.380;2022-09-03T07:46:30;4.95;;;1.67;;
69008;SDS011;56065;52.472;13.380;2022-09-03T07:48:57;7.82;;;1.50;;
69008;SDS011;56065;52.472;13.380;2022-09-03T07:51:26;5.88;;;1.52;;
69008;SDS011;56065;52.472;13.380;2022-09-03T07:53:54;4.70;;;1.30;;
69008;SDS011;56065;52.472;13.380;2022-09-03T07:56:22;4.38;;;1.15;;
69008;SDS011;56065;52.472;13.380;2022-09-03T07:58:48;3.97;;;1.20;;
69008;SDS011;56065;52.472;13.380;2022-09-03T08:01:14;7.57;;;1.50;;
69008;SDS011;56065;52.472;13.380;2022-09-03T08:03:43;4.60;;;1.23;;
69008;SDS011;56065;52.472;13.380;2022-09-03T08:06:10;5.53;;;1.35;;
69008;SDS011;56065;52.472;13.380;2022-09-03T08:08:37;4.53;;;1.20;;
69008;SDS011;56065;52.472;13.380;2022-09-03T08:13:34;7.40;;;1.70;;
69008;SDS011;56065;52.472;13.380;2022-09-03T08:16:00;4.90;;;1.13;;
69008;SDS011;56065;52.472;13.380;2022-09-03T08:18:25;5.23;;;1.60;;
69008;SDS011;56065;52.472;13.380;2022-09-03T08:20:51;4.97;;;1.40;;
69008;SDS011;56065;52.472;13.380;2022-09-03T08:23:16;6.70;;;1.60;;
69008;SDS011;56065;52.472;13.380;2022-09-03T08:25:42;5.47;;;1.67;;
69008;SDS011;56065;52.472;13.380;2022-09-03T08:28:08;5.78;;;1.88;;
69008;SDS011;56065;52.472;13.380;2022-09-03T08:30:34;5.47;;;2.30;;
69008;SDS011;56065;52.472;13.380;2022-09-03T08:33:01;5.75;;;2.00;;
69008;SDS011;56065;52.472;13.380;2022-09-03T08:35:28;5.20;;;1.88;;
69008;SDS011;56065;52.472;13.380;2022-09-03T08:37:56;6.07;;;1.85;;
69008;SDS011;56065;52.472;13.380;2022-09-03T08:40:21;5.93;;;1.90;;
69008;SDS011;56065;52.472;13.380;2022-09-03T08:42:55;5.10;;;1.77;;
69008;SDS011;56065;52.472;13.380;2022-09-03T08:45:30;7.55;;;1.80;;
69008;SDS011;56065;52.472;13.380;2022-09-03T08:48:00;4.95;;;1.77;;
69008;SDS011;56065;52.472;13.380;2022-09-03T08:50:33;7.13;;;2.03;;
69008;SDS011;56065;52.472;13.380;2022-09-03T08:58:15;5.45;;;2.10;;
69008;SDS011;56065;52.472;13.380;2022-09-03T09:14:30;7.00;;;2.08;;
69008;SDS011;56065;52.472;13.380;2022-09-03T09:22:37;5.32;;;2.15;;
69008;SDS011;56065;52.472;13.380;2022-09-03T09:25:07;5.50;;;2.83;;
69008;SDS011;56065;52.472;13.380;2022-09-03T09:27:40;7.13;;;2.10;;
69008;SDS011;56065;52.472;13.380;2022-09-03T09:30:28;7.13;;;2.40;;
69008;SDS011;56065;52.472;13.380;2022-09-03T09:32:55;7.55;;;3.17;;
69008;SDS011;56065;52.472;13.380;2022-09-03T09:35:21;8.53;;;3.33;;
69008;SDS011;56065;52.472;13.380;2022-09-03T09:37:51;7.97;;;2.78;;
69008;SDS011;56065;52.472;13.380;2022-09-03T09:40:28;8.77;;;2.50;;
69008;SDS011;56065;52.472;13.380;2022-09-03T09:43:09;7.25;;;2.92;;
69008;SDS011;56065;52.472;13.380;2022-09-03T09:45:40;6.80;;;3.35;;
69008;SDS011;56065;52.472;13.380;2022-09-03T09:48:08;5.53;;;2.40;;
69008;SDS011;56065;52.472;13.380;2022-09-03T09:50:41;3.83;;;1.80;;
69008;SDS011;56065;52.472;13.380;2022-09-03T09:53:07;5.03;;;2.40;;
69008;SDS011;56065;52.472;13.380;2022-09-03T09:56:18;4.90;;;2.20;;
69008;SDS011;56065;52.472;13.380;2022-09-03T09:58:43;7.78;;;2.70;;
69008;SDS011;56065;52.472;13.380;2022-09-03T10:01:10;4.67;;;2.30;;
69008;SDS011;56065;52.472;13.380;2022-09-03T10:03:54;5.32;;;1.92;;
69008;SDS011;56065;52.472;13.380;2022-09-03T10:06:25;5.47;;;2.90;;
69008;SDS011;56065;52.472;13.380;2022-09-03T10:09:17;5.70;;;2.80;;
69008;SDS011;56065;52.472;13.380;2022-09-03T10:11:47;5.07;;;2.80;;
69008;SDS011;56065;52.472;13.380;2022-09-03T10:14:22;5.37;;;2.73;;
69008;SDS011;56065;52.472;13.380;2022-09-03T10:17:00;5.75;;;2.42;;
69008;SDS011;56065;52.472;13.380;2022-09-03T10:19:57;5.75;;;2.92;;
69008;SDS011;56065;52.472;13.380;2022-09-03T10:22:49;8.32;;;2.75;;
69008;SDS011;56065;52.472;13.380;2022-09-03T10:25:18;5.13;;;1.95;;
69008;SDS011;56065;52.472;13.380;2022-09-03T10:27:45;8.13;;;1.73;;
69008;SDS011;56065;52.472;13.380;2022-09-03T10:30:11;5.72;;;2.35;;
69008;SDS011;56065;52.472;13.380;2022-09-03T10:32:44;9.23;;;3.47;;
69008;SDS011;56065;52.472;13.380;2022-09-03T10:35:34;7.35;;;1.70;;
69008;SDS011;56065;52.472;13.380;2022-09-03T10:38:13;4.55;;;1.40;;
69008;SDS011;56065;52.472;13.380;2022-09-03T11:00:23;5.50;;;1.40;;
69008;SDS011;56065;52.472;13.380;2022-09-03T11:10:34;5.85;;;1.30;;
69008;SDS011;56065;52.472;13.380;2022-09-03T11:14:08;6.77;;;1.40;;
69008;SDS011;56065;52.472;13.380;2022-09-03T11:16:23;3.85;;;1.63;;
69008;SDS011;56065;52.472;13.380;2022-09-03T11:18:54;5.13;;;2.10;;
69008;SDS011;56065;52.472;13.380;2022-09-03T11:21:25;4.85;;;1.17;;
69008;SDS011;56065;52.472;13.380;2022-09-03T11:24:14;6.13;;;2.03;;
69008;SDS011;56065;52.472;13.380;2022-09-03T11:26:38;7.00;;;2.07;;
69008;SDS011;56065;52.472;13.380;2022-09-03T11:32:08;6.88;;;1.50;;
69008;SDS011;56065;52.472;13.380;2022-09-03T11:34:58;4.55;;;1.90;;
69008;SDS011;56065;52.472;13.380;2022-09-03T11:37:27;4.53;;;1.30;;
69008;SDS011;56065;52.472;13.380;2022-09-03T11:39:58;6.80;;;1.50;;
69008;SDS011;56065;52.472;13.380;2022-09-03T11:42:41;6.70;;;1.73;;
69008;SDS011;56065;52.472;13.380;2022-09-03T11:45:22;6.33;;;2.13;;
69008;SDS011;56065;52.472;13.380;2022-09-03T11:56:48;3.03;;;1.10;;
69008;SDS011;56065;52.472;13.380;2022-09-03T11:59:18;6.73;;;1.10;;
69008;SDS011;56065;52.472;13.380;2022-09-03T12:18:18;7.72;;;2.85;;
69008;SDS011;56065;52.472;13.380;2022-09-03T12:23:27;8.35;;;3.70;;
69008;SDS011;56065;52.472;13.380;2022-09-03T12:26:09;6.70;;;2.45;;
69008;SDS011;56065;52.472;13.380;2022-09-03T12:28:41;5.00;;;1.23;;
69008;SDS011;56065;52.472;13.380;2022-09-03T12:31:16;10.02;;;2.72;;
69008;SDS011;56065;52.472;13.380;2022-09-03T12:33:54;10.27;;;5.50;;
69008;SDS011;56065;52.472;13.380;2022-09-03T12:36:25;13.20;;;4.55;;
69008;SDS011;56065;52.472;13.380;2022-09-03T12:39:06;11.60;;;3.38;;
69008;SDS011;56065;52.472;13.380;2022-09-03T12:44:23;5.50;;;1.52;;
69008;SDS011;56065;52.472;13.380;2022-09-03T12:46:58;13.00;;;3.80;;
69008;SDS011;56065;52.472;13.380;2022-09-03T12:49:24;4.43;;;1.42;;
69008;SDS011;56065;52.472;13.380;2022-09-03T12:51:50;5.17;;;1.83;;
69008;SDS011;56065;52.472;13.380;2022-09-03T12:54:15;5.27;;;2.13;;
69008;SDS011;56065;52.472;13.380;2022-09-03T12:56:42;6.37;;;2.57;;
69008;SDS011;56065;52.472;13.380;2022-09-03T12:59:14;9.68;;;3.25;;
69008;SDS011;56065;52.472;13.380;2022-09-03T13:01:52;7.75;;;2.33;;
69008;SDS011;56065;52.472;13.380;2022-09-03T13:04:24;4.72;;;1.70;;
69008;SDS011;56065;52.472;13.380;2022-09-03T13:09:58;7.47;;;1.87;;
69008;SDS011;56065;52.472;13.380;2022-09-03T13:12:29;5.43;;;1.17;;
69008;SDS011;56065;52.472;13.380;2022-09-03T13:15:06;3.80;;;1.15;;
69008;SDS011;56065;52.472;13.380;2022-09-03T13:17:43;10.13;;;2.13;;
69008;SDS011;56065;52.472;13.380;2022-09-03T13:20:36;9.15;;;3.67;;
69008;SDS011;56065;52.472;13.380;2022-09-03T13:23:34;9.10;;;4.60;;
69008;SDS011;56065;52.472;13.380;2022-09-03T13:32:21;6.47;;;3.95;;
69008;SDS011;56065;52.472;13.380;2022-09-03T13:37:46;8.03;;;2.30;;
69008;SDS011;56065;52.472;13.380;2022-09-03T13:40:24;4.18;;;1.58;;
69008;SDS011;56065;52.472;13.380;2022-09-03T13:48:44;6.80;;;2.47;;
69008;SDS011;56065;52.472;13.380;2022-09-03T13:51:39;4.70;;;1.60;;
69008;SDS011;56065;52.472;13.380;2022-09-03T13:54:16;6.15;;;2.17;;
69008;SDS011;56065;52.472;13.380;2022-09-03T13:56:57;11.07;;;5.28;;
69008;SDS011;56065;52.472;13.380;2022-09-03T13:59:27;5.57;;;1.95;;
69008;SDS011;56065;52.472;13.380;2022-09-03T14:02:21;5.18;;;1.70;;
69008;SDS011;56065;52.472;13.380;2022-09-03T14:13:40;7.07;;;2.05;;
69008;SDS011;56065;52.472;13.380;2022-09-03T14:16:23;11.50;;;2.63;;
69008;SDS011;56065;52.472;13.380;2022-09-03T14:21:35;28.13;;;17.58;;
69008;SDS011;56065;52.472;13.380;2022-09-03T14:24:13;20.35;;;12.18;;
69008;SDS011;56065;52.472;13.380;2022-09-03T14:26:53;25.08;;;16.23;;
69008;SDS011;56065;52.472;13.380;2022-09-03T14:29:31;17.48;;;11.32;;
69008;SDS011;56065;52.472;13.380;2022-09-03T14:32:16;9.47;;;5.20;;
69008;SDS011;56065;52.472;13.380;2022-09-03T14:34:54;9.68;;;3.40;;
69008;SDS011;56065;52.472;13.380;2022-09-03T14:37:44;14.98;;;8.93;;
69008;SDS011;56065;52.472;13.380;2022-09-03T14:40:16;8.07;;;3.72;;
69008;SDS011;56065;52.472;13.380;2022-09-03T14:46:00;7.03;;;3.37;;
69008;SDS011;56065;52.472;13.380;2022-09-03T14:49:09;9.07;;;3.17;;
69008;SDS011;56065;52.472;13.380;2022-09-03T14:52:03;7.68;;;2.60;;
69008;SDS011;56065;52.472;13.380;2022-09-03T15:00:07;5.77;;;2.37;;
69008;SDS011;56065;52.472;13.380;2022-09-03T15:08:31;9.90;;;4.75;;
69008;SDS011;56065;52.472;13.380;2022-09-03T15:11:20;12.57;;;5.25;;
69008;SDS011;56065;52.472;13.380;2022-09-03T15:13:50;22.23;;;15.13;;
69008;SDS011;56065;52.472;13.380;2022-09-03T15:27:30;25.27;;;11.93;;
69008;SDS011;56065;52.472;13.380;2022-09-03T15:30:04;37.25;;;21.25;;
69008;SDS011;56065;52.472;13.380;2022-09-03T15:43:18;27.08;;;14.27;;
69008;SDS011;56065;52.472;13.380;2022-09-03T15:45:53;21.52;;;11.55;;
69008;SDS011;56065;52.472;13.380;2022-09-03T15:48:29;26.75;;;17.77;;
69008;SDS011;56065;52.472;13.380;2022-09-03T15:51:16;31.38;;;19.35;;
69008;SDS011;56065;52.472;13.380;2022-09-03T15:56:26;9.45;;;4.20;;
69008;SDS011;56065;52.472;13.380;2022-09-03T16:04:31;6.47;;;2.35;;
69008;SDS011;56065;52.472;13.380;2022-09-03T16:07:26;6.03;;;1.47;;
69008;SDS011;56065;52.472;13.380;2022-09-03T16:10:16;6.65;;;2.65;;
69008;SDS011;56065;52.472;13.380;2022-09-03T16:15:16;6.15;;;1.63;;
69008;SDS011;56065;52.472;13.380;2022-09-03T16:20:47;8.43;;;1.60;;
69008;SDS011;56065;52.472;13.380;2022-09-03T16:26:30;7.45;;;1.90;;
69008;SDS011;56065;52.472;13.380;2022-09-03T16:29:16;13.38;;;4.13;;
69008;SDS011;56065;52.472;13.380;2022-09-03T16:37:34;7.30;;;2.95;;
69008;SDS011;56065;52.472;13.380;2022-09-03T16:51:31;8.50;;;2.08;;
69008;SDS011;56065;52.472;13.380;2022-09-03T17:10:47;7.13;;;3.08;;
69008;SDS011;56065;52.472;13.380;2022-09-03T17:18:33;9.75;;;4.10;;
69008;SDS011;56065;52.472;13.380;2022-09-03T17:21:17;11.60;;;3.28;;
69008;SDS011;56065;52.472;13.380;2022-09-03T17:29:39;15.27;;;7.87;;
69008;SDS011;56065;52.472;13.380;2022-09-03T17:35:18;27.75;;;14.48;;
69008;SDS011;56065;52.472;13.380;2022-09-03T17:49:00;14.93;;;5.40;;
69008;SDS011;56065;52.472;13.380;2022-09-03T17:51:35;6.60;;;2.50;;
69008;SDS011;56065;52.472;13.380;2022-09-03T18:04:42;27.37;;;12.40;;
69008;SDS011;56065;52.472;13.380;2022-09-03T18:07:11;13.23;;;5.20;;
69008;SDS011;56065;52.472;13.380;2022-09-03T18:12:27;8.38;;;3.60;;
69008;SDS011;56065;52.472;13.380;2022-09-03T18:15:17;25.10;;;10.13;;
69008;SDS011;56065;52.472;13.380;2022-09-03T18:18:05;14.60;;;6.17;;
69008;SDS011;56065;52.472;13.380;2022-09-03T18:20:40;10.90;;;4.65;;
69008;SDS011;56065;52.472;13.380;2022-09-03T18:23:46;41.47;;;19.45;;
69008;SDS011;56065;52.472;13.380;2022-09-03T18:26:39;11.57;;;4.78;;
69008;SDS011;56065;52.472;13.380;2022-09-03T18:32:39;10.40;;;2.90;;
69008;SDS011;56065;52.472;13.380;2022-09-03T18:35:23;11.30;;;2.97;;
69008;SDS011;56065;52.472;13.380;2022-09-03T18:38:11;9.52;;;3.53;;
69008;SDS011;56065;52.472;13.380;2022-09-03T18:40:58;8.73;;;3.20;;
69008;SDS011;56065;52.472;13.380;2022-09-03T18:53:01;9.35;;;3.15;;
69008;SDS011;56065;52.472;13.380;2022-09-03T19:02:22;24.63;;;11.13;;
69008;SDS011;56065;52.472;13.380;2022-09-03T19:08:05;23.75;;;10.40;;
69008;SDS011;56065;52.472;13.380;2022-09-03T19:13:48;10.07;;;4.22;;
69008;SDS011;56065;52.472;13.380;2022-09-03T19:22:25;10.85;;;3.92;;
69008;SDS011;56065;52.472;13.380;2022-09-03T19:25:13;6.97;;;2.40;;
69008;SDS011;56065;52.472;13.380;2022-09-03T19:28:12;10.98;;;2.70;;
69008;SDS011;56065;52.472;13.380;2022-09-03T19:37:03;14.70;;;5.90;;
69008;SDS011;56065;52.472;13.380;2022-09-03T19:40:29;7.78;;;2.80;;
69008;SDS011;56065;52.472;13.380;2022-09-03T19:46:40;7.77;;;3.50;;
69008;SDS011;56065;52.472;13.380;2022-09-03T19:50:09;10.68;;;4.03;;
69008;SDS011;56065;52.472;13.380;2022-09-03T19:52:59;13.20;;;6.20;;
69008;SDS011;56065;52.472;13.380;2022-09-03T19:55:47;7.55;;;2.63;;
69008;SDS011;56065;52.472;13.380;2022-09-03T19:58:42;9.18;;;3.58;;
69008;SDS011;56065;52.472;13.380;2022-09-03T20:01:34;8.13;;;2.60;;
69008;SDS011;56065;52.472;13.380;2022-09-03T20:04:20;7.40;;;2.50;;
69008;SDS011;56065;52.472;13.380;2022-09-03T20:07:12;7.78;;;2.17;;
69008;SDS011;56065;52.472;13.380;2022-09-03T20:09:56;9.98;;;3.17;;
69008;SDS011;56065;52.472;13.380;2022-09-03T20:12:47;7.53;;;2.80;;
69008;SDS011;56065;52.472;13.380;2022-09-03T20:15:19;10.30;;;2.70;;
69008;SDS011;56065;52.472;13.380;2022-09-03T20:17:59;9.02;;;3.05;;
69008;SDS011;56065;52.472;13.380;2022-09-03T20:26:33;13.38;;;6.00;;
69008;SDS011;56065;52.472;13.380;2022-09-03T20:40:25;10.68;;;3.58;;
69008;SDS011;56065;52.472;13.380;2022-09-03T20:59:18;6.10;;;2.40;;
69008;SDS011;56065;52.472;13.380;2022-09-03T21:01:56;6.82;;;2.40;;
69008;SDS011;56065;52.472;13.380;2022-09-03T21:10:04;6.50;;;2.70;;
69008;SDS011;56065;52.472;13.380;2022-09-03T21:12:46;8.30;;;2.20;;
69008;SDS011;56065;52.472;13.380;2022-09-03T21:21:05;8.30;;;1.90;;
69008;SDS011;56065;52.472;13.380;2022-09-03T21:23:45;8.57;;;3.27;;
69008;SDS011;56065;52.472;13.380;2022-09-03T21:26:24;8.43;;;2.55;;
69008;SDS011;56065;52.472;13.380;2022-09-03T21:31:33;7.50;;;2.53;;
69008;SDS011;56065;52.472;13.380;2022-09-03T21:34:10;11.48;;;4.38;;